createdAt,value
2019-02-21T00:02:13.592Z,73.73
2019-02-21T00:04:42.456Z,74.07
2019-02-21T00:07:09.221Z,74.13
2019-02-21T00:09:36.100Z,76.44
2019-02-21T00:12:03.011Z,76.44
2019-02-21T00:14:30.723Z,76.43
2019-02-21T00:16:57.460Z,75.97
2019-02-21T00:19:24.214Z,75.56
2019-02-21T00:21:50.997Z,74.67
2019-02-21T00:24:18.420Z,74.67
2019-02-21T00:26:46.817Z,74.06
2019-02-21T00:29:13.645Z,74.26
2019-02-21T00:31:40.687Z,74.24
2019-02-21T00:34:07.425Z,74.20
2019-02-21T00:36:34.275Z,74.20
2019-02-21T00:39:01.032Z,74.30
2019-02-21T00:41:27.799Z,75.35
2019-02-21T00:43:55.109Z,74.52
2019-02-21T00:46:21.896Z,73.96
2019-02-21T00:48:48.870Z,73.83
2019-02-21T00:51:15.785Z,73.83
2019-02-21T00:53:42.553Z,73.77
2019-02-21T00:56:09.332Z,73.66
2019-02-21T00:58:36.185Z,73.45
2019-02-21T01:01:03.021Z,73.45
2019-02-21T01:03:29.751Z,73.76
2019-02-21T01:05:56.506Z,74.18
2019-02-21T01:08:23.402Z,73.99
2019-02-21T01:10:50.385Z,73.99
2019-02-21T01:13:17.137Z,73.79
2019-02-21T01:18:26.657Z,73.84
2019-02-21T01:20:53.425Z,73.64
2019-02-21T01:23:20.338Z,74.10
2019-02-21T01:25:47.197Z,74.58
2019-02-21T01:28:14.272Z,75.51
2019-02-21T01:30:41.413Z,75.83
2019-02-21T01:33:08.152Z,75.66
2019-02-21T01:35:34.888Z,75.23
2019-02-21T01:38:01.627Z,74.57
2019-02-21T01:40:28.598Z,74.91
2019-02-21T01:42:55.581Z,74.53
2019-02-21T01:45:22.336Z,74.64
2019-02-21T01:47:49.114Z,74.42
2019-02-21T01:50:15.889Z,74.60
2019-02-21T01:52:42.754Z,74.34
2019-02-21T01:55:09.922Z,74.94
2019-02-21T01:57:36.976Z,74.39
2019-02-21T02:00:04.027Z,74.07
2019-02-21T02:02:30.793Z,74.70
2019-02-21T02:04:57.560Z,74.22
2019-02-21T02:07:24.344Z,74.66
2019-02-21T02:09:51.090Z,74.25
2019-02-21T02:12:18.072Z,74.16
2019-02-21T02:14:44.922Z,73.66
2019-02-21T02:17:11.895Z,74.47
2019-02-21T02:19:38.682Z,74.47
2019-02-21T02:22:08.119Z,74.34
2019-02-21T02:24:34.865Z,74.57
2019-02-21T02:27:01.600Z,75.00
2019-02-21T02:29:28.337Z,74.28
2019-02-21T02:31:55.186Z,75.08
2019-02-21T02:34:21.985Z,75.08
2019-02-21T02:36:48.818Z,75.13
2019-02-21T02:39:15.589Z,75.52
2019-02-21T02:41:42.288Z,75.71
2019-02-21T02:44:09.063Z,75.37
2019-02-21T02:46:35.808Z,75.11
2019-02-21T02:49:02.573Z,74.97
2019-02-21T02:51:29.400Z,74.88
2019-02-21T02:53:56.130Z,75.10
2019-02-21T02:56:22.925Z,74.74
2019-02-21T02:58:49.694Z,74.74
2019-02-21T03:01:16.483Z,75.01
2019-02-21T03:03:43.315Z,75.64
2019-02-21T03:06:10.172Z,75.24
2019-02-21T03:08:37.043Z,76.08
2019-02-21T03:11:03.792Z,76.28
2019-02-21T03:13:30.537Z,75.65
2019-02-21T03:15:57.405Z,75.85
2019-02-21T03:18:24.185Z,76.18
2019-02-21T03:20:51.068Z,75.45
2019-02-21T03:23:17.802Z,75.62
2019-02-21T03:25:44.552Z,75.18
2019-02-21T03:28:13.869Z,75.05
2019-02-21T03:30:40.716Z,75.00
2019-02-21T03:33:07.514Z,75.07
2019-02-21T03:35:34.287Z,75.06
2019-02-21T03:38:01.039Z,75.01
2019-02-21T03:40:27.788Z,74.62
2019-02-21T03:42:54.535Z,74.77
2019-02-21T03:45:21.623Z,74.49
2019-02-21T03:47:53.856Z,75.35
2019-02-21T03:50:20.719Z,75.06
2019-02-21T03:52:50.565Z,75.69
2019-02-21T03:55:17.531Z,75.73
2019-02-21T03:57:44.309Z,75.70
2019-02-21T04:00:11.392Z,75.49
2019-02-21T04:02:38.151Z,75.69
2019-02-21T04:05:04.921Z,75.01
2019-02-21T04:07:31.667Z,75.08
2019-02-21T04:09:58.661Z,76.11
2019-02-21T04:12:27.295Z,76.25
2019-02-21T04:14:54.253Z,76.04
2019-02-21T04:17:20.981Z,75.47
2019-02-21T04:19:47.718Z,75.11
2019-02-21T04:22:17.273Z,75.05
2019-02-21T04:24:44.063Z,75.22
2019-02-21T04:27:10.826Z,75.09
2019-02-21T04:29:37.615Z,74.65
2019-02-21T04:32:16.161Z,74.92
2019-02-21T04:34:35.160Z,74.46
2019-02-21T04:37:02.011Z,74.83
2019-02-21T04:39:28.752Z,74.91
2019-02-21T04:41:55.750Z,75.33
2019-02-21T04:44:22.445Z,75.18
2019-02-21T04:46:49.308Z,74.79
2019-02-21T04:49:16.038Z,74.55
2019-02-21T04:51:42.886Z,74.24
2019-02-21T04:54:09.595Z,74.42
2019-02-21T04:56:36.345Z,74.40
2019-02-21T04:59:06.716Z,74.38
2019-02-21T05:01:33.664Z,75.10
2019-02-21T05:04:00.339Z,75.43
2019-02-21T05:06:27.054Z,75.21
2019-02-21T05:08:54.021Z,76.18
2019-02-21T05:11:20.861Z,77.12
2019-02-21T05:13:50.352Z,77.15
2019-02-21T05:16:17.209Z,76.72
2019-02-21T05:18:47.421Z,76.11
2019-02-21T05:21:14.271Z,75.48
2019-02-21T05:23:41.026Z,74.98
2019-02-21T05:26:09.677Z,74.92
2019-02-21T05:28:36.400Z,74.90
2019-02-21T05:31:07.481Z,74.64
2019-02-21T05:34:09.229Z,74.58
2019-02-21T05:37:07.789Z,74.98
2019-02-21T05:40:02.748Z,75.20
2019-02-21T05:42:34.574Z,74.68
2019-02-21T05:45:11.645Z,74.21
2019-02-21T05:47:46.907Z,75.41
2019-02-21T05:50:24.991Z,75.39
2019-02-21T05:53:26.475Z,75.54
2019-02-21T05:56:10.906Z,74.58
2019-02-21T05:58:56.095Z,75.16
2019-02-21T06:01:42.472Z,75.09
2019-02-21T06:04:34.650Z,74.80
2019-02-21T06:07:19.577Z,74.59
2019-02-21T06:10:02.737Z,74.51
2019-02-21T06:12:59.906Z,74.46
2019-02-21T06:15:42.746Z,74.46
2019-02-21T06:18:34.853Z,73.38
2019-02-21T06:21:24.281Z,74.13
2019-02-21T06:24:05.390Z,74.13
2019-02-21T06:26:39.522Z,74.48
2019-02-21T06:29:13.696Z,74.36
2019-02-21T06:31:40.406Z,74.69
2019-02-21T06:34:07.243Z,74.53
2019-02-21T06:36:33.956Z,74.35
2019-02-21T06:39:00.728Z,74.06
2019-02-21T06:41:29.807Z,74.10
2019-02-21T06:43:56.981Z,73.81
2019-02-21T06:46:24.474Z,73.94
2019-02-21T06:48:51.682Z,74.10
2019-02-21T06:51:18.681Z,73.89
2019-02-21T06:53:45.443Z,73.77
2019-02-21T06:56:12.216Z,74.06
2019-02-21T06:58:39.143Z,75.30
2019-02-21T07:01:07.085Z,74.60
2019-02-21T07:03:33.872Z,74.60
2019-02-21T07:06:02.562Z,75.41
2019-02-21T07:08:30.156Z,76.66
2019-02-21T07:11:05.955Z,77.14
2019-02-21T07:13:26.826Z,77.79
2019-02-21T07:15:53.911Z,77.37
2019-02-21T07:18:20.793Z,76.89
2019-02-21T07:20:47.544Z,77.38
2019-02-21T07:23:14.307Z,77.64
2019-02-21T07:25:53.563Z,76.06
2019-02-21T07:28:23.495Z,76.06
2019-02-21T07:30:51.296Z,75.14
2019-02-21T07:33:27.892Z,75.14
2019-02-21T07:35:46.954Z,74.57
2019-02-21T07:38:13.788Z,74.59
2019-02-21T07:40:41.643Z,74.54
2019-02-21T07:43:08.481Z,74.54
2019-02-21T07:45:36.655Z,74.59
2019-02-21T07:48:03.870Z,73.98
2019-02-21T07:50:30.914Z,74.26
2019-02-21T07:53:02.525Z,74.33
2019-02-21T07:55:29.152Z,74.33
2019-02-21T07:57:55.877Z,74.47
2019-02-21T08:00:22.617Z,73.64
2019-02-21T08:02:49.832Z,73.64
2019-02-21T08:05:16.572Z,73.49
2019-02-21T08:07:43.311Z,74.82
2019-02-21T08:10:10.101Z,74.95
2019-02-21T08:12:37.194Z,74.95
2019-02-21T08:15:08.163Z,74.90
2019-02-21T08:17:34.888Z,74.60
2019-02-21T08:20:08.380Z,76.05
2019-02-21T08:22:31.493Z,76.05
2019-02-21T08:24:58.368Z,75.79
2019-02-21T08:27:26.608Z,76.21
2019-02-21T08:29:53.356Z,76.30
2019-02-21T08:32:24.879Z,76.30
2019-02-21T08:34:52.685Z,76.85
2019-02-21T08:37:19.470Z,76.88
2019-02-21T08:39:46.249Z,76.88
2019-02-21T08:42:12.979Z,76.10
2019-02-21T08:44:40.083Z,76.10
2019-02-21T08:47:06.839Z,75.83
2019-02-21T08:49:33.698Z,75.83
2019-02-21T08:52:00.719Z,75.51
2019-02-21T08:54:27.761Z,74.74
2019-02-21T08:56:58.395Z,75.17
2019-02-21T08:59:25.182Z,75.27
2019-02-21T09:01:51.906Z,74.78
2019-02-21T09:04:27.335Z,74.04
2019-02-21T09:06:47.729Z,74.04
2019-02-21T09:09:14.473Z,74.00
2019-02-21T09:11:44.799Z,73.47
2019-02-21T09:14:12.645Z,73.68
2019-02-21T09:16:39.332Z,73.99
2019-02-21T09:19:06.099Z,74.10
2019-02-21T09:21:32.893Z,74.10
2019-02-21T09:23:59.722Z,73.74
2019-02-21T09:26:26.439Z,73.78
2019-02-21T09:28:53.190Z,73.60
2019-02-21T09:31:19.930Z,73.49
2019-02-21T09:33:48.709Z,73.29
2019-02-21T09:36:15.301Z,73.74
2019-02-21T09:38:42.091Z,73.52
2019-02-21T09:41:08.868Z,73.01
2019-02-21T09:43:35.636Z,72.38
2019-02-21T09:46:02.531Z,72.39
2019-02-21T09:48:29.280Z,72.58
2019-02-21T09:50:56.160Z,73.24
2019-02-21T09:53:22.918Z,73.83
2019-02-21T09:55:50.492Z,73.99
2019-02-21T09:58:17.449Z,73.85
2019-02-21T10:00:44.269Z,72.78
2019-02-21T10:03:19.500Z,72.70
2019-02-21T10:05:46.276Z,72.50
2019-02-21T10:08:13.122Z,71.99
2019-02-21T10:10:39.902Z,71.38
2019-02-21T10:13:06.639Z,71.60
2019-02-21T10:15:34.901Z,71.78
2019-02-21T10:18:01.776Z,71.81
2019-02-21T10:20:28.532Z,71.77
2019-02-21T10:22:55.673Z,71.72
2019-02-21T10:25:24.482Z,71.51
2019-02-21T10:27:52.981Z,71.46
2019-02-21T10:30:20.588Z,71.38
2019-02-21T10:32:47.570Z,71.41
2019-02-21T10:35:16.964Z,71.16
2019-02-21T10:37:47.218Z,70.91
2019-02-21T10:40:13.945Z,70.79
2019-02-21T10:42:40.729Z,70.45
2019-02-21T10:45:10.227Z,70.24
2019-02-21T10:47:36.976Z,69.78
2019-02-21T10:50:04.759Z,69.41
2019-02-21T10:52:31.592Z,69.15
2019-02-21T10:54:58.684Z,68.75
2019-02-21T10:57:25.670Z,67.80
2019-02-21T10:59:53.625Z,67.69
2019-02-21T11:02:20.298Z,67.58
2019-02-21T11:04:54.917Z,67.22
2019-02-21T11:07:21.260Z,67.31
2019-02-21T11:09:48.080Z,67.31
2019-02-21T11:12:15.676Z,67.20
2019-02-21T11:14:47.525Z,66.96
2019-02-21T11:17:11.266Z,67.32
2019-02-21T11:19:38.975Z,67.32
2019-02-21T11:22:09.404Z,67.89
2019-02-21T11:24:36.161Z,68.34
2019-02-21T11:27:04.420Z,68.71
2019-02-21T11:29:31.582Z,68.36
2019-02-21T11:31:58.316Z,67.99
2019-02-21T11:34:28.442Z,67.46
2019-02-21T11:36:55.218Z,67.29
2019-02-21T11:39:21.914Z,66.90
2019-02-21T11:41:49.011Z,66.38
2019-02-21T11:44:15.914Z,66.21
2019-02-21T11:46:42.750Z,65.77
2019-02-21T11:49:09.532Z,65.40
2019-02-21T11:51:36.643Z,65.48
2019-02-21T11:54:03.396Z,65.03
2019-02-21T11:56:30.144Z,65.36
2019-02-21T11:58:56.870Z,65.10
2019-02-21T12:01:23.654Z,64.93
2019-02-21T12:03:50.419Z,64.93
2019-02-21T12:06:17.415Z,64.50
2019-02-21T12:08:45.925Z,64.00
2019-02-21T12:11:12.655Z,63.77
2019-02-21T12:13:39.781Z,63.86
2019-02-21T12:16:08.176Z,63.66
2019-02-21T12:18:35.161Z,62.70
2019-02-21T12:21:01.989Z,62.45
2019-02-21T12:23:29.597Z,61.24
2019-02-21T12:25:56.488Z,61.34
2019-02-21T12:28:24.902Z,60.86
2019-02-21T12:30:53.915Z,60.62
2019-02-21T12:33:20.653Z,60.23
2019-02-21T12:35:47.357Z,60.18
2019-02-21T12:38:14.167Z,60.34
2019-02-21T12:40:40.975Z,60.43
2019-02-21T12:43:08.108Z,60.26
2019-02-21T12:45:36.670Z,60.61
2019-02-21T12:48:03.419Z,60.52
2019-02-21T12:50:30.142Z,60.39
2019-02-21T12:52:57.204Z,60.60
2019-02-21T12:55:29.480Z,60.33
2019-02-21T12:57:52.644Z,60.14
2019-02-21T13:00:19.608Z,59.61
2019-02-21T13:02:46.329Z,59.35
2019-02-21T13:05:16.587Z,59.59
2019-02-21T13:07:43.453Z,59.32
2019-02-21T13:10:11.844Z,58.85
2019-02-21T13:12:38.703Z,58.64
2019-02-21T13:15:06.707Z,58.40
2019-02-21T13:17:33.623Z,58.53
2019-02-21T13:20:01.085Z,58.93
2019-02-21T13:22:28.059Z,59.31
2019-02-21T13:24:54.829Z,59.15
2019-02-21T13:27:21.585Z,59.09
2019-02-21T13:29:48.823Z,58.93
2019-02-21T13:32:15.574Z,58.49
2019-02-21T13:34:42.853Z,57.41
2019-02-21T13:37:10.030Z,56.62
2019-02-21T13:39:36.775Z,56.47
2019-02-21T13:42:03.510Z,56.64
2019-02-21T13:44:33.308Z,57.32
2019-02-21T13:47:00.016Z,57.60
2019-02-21T13:49:26.737Z,57.74
2019-02-21T13:51:56.340Z,58.34
2019-02-21T13:54:23.106Z,58.48
2019-02-21T13:56:50.619Z,58.27
2019-02-21T13:59:17.427Z,58.56
2019-02-21T14:01:44.148Z,58.63
2019-02-21T14:04:10.898Z,58.53
2019-02-21T14:06:39.224Z,58.36
2019-02-21T14:09:06.008Z,58.65
2019-02-21T14:11:32.884Z,58.93
2019-02-21T14:13:59.681Z,59.14
2019-02-21T14:16:27.714Z,59.04
2019-02-21T14:18:54.699Z,58.59
2019-02-21T14:21:21.451Z,58.25
2019-02-21T14:23:48.208Z,57.98
2019-02-21T14:26:15.012Z,57.98
2019-02-21T14:28:41.753Z,57.83
2019-02-21T14:31:08.736Z,57.82
2019-02-21T14:33:35.494Z,57.67
2019-02-21T14:36:02.211Z,57.68
2019-02-21T14:38:29.492Z,57.34
2019-02-21T14:40:56.376Z,57.44
2019-02-21T14:43:23.209Z,57.37
2019-02-21T14:45:50.091Z,57.33
2019-02-21T14:48:17.181Z,57.44
2019-02-21T14:50:43.925Z,57.70
2019-02-21T14:53:10.701Z,57.76
2019-02-21T14:55:37.427Z,57.92
2019-02-21T14:58:04.185Z,57.18
2019-02-21T15:00:31.155Z,57.82
2019-02-21T15:02:58.170Z,57.71
2019-02-21T15:05:25.151Z,57.73
2019-02-21T15:07:51.847Z,57.71
2019-02-21T15:10:18.582Z,57.58
2019-02-21T15:12:47.801Z,57.39
2019-02-21T15:15:15.363Z,57.87
2019-02-21T15:17:42.548Z,57.96
2019-02-21T15:20:10.581Z,57.30
2019-02-21T15:22:37.337Z,57.53
2019-02-21T15:25:07.735Z,57.66
2019-02-21T15:27:34.463Z,57.60
2019-02-21T15:30:01.484Z,57.35
2019-02-21T15:32:28.370Z,56.91
2019-02-21T15:34:55.135Z,56.33
2019-02-21T15:37:22.178Z,56.12
2019-02-21T15:39:49.223Z,55.94
2019-02-21T15:42:16.071Z,55.85
2019-02-21T15:44:42.959Z,55.99
2019-02-21T15:47:09.819Z,56.12
2019-02-21T15:49:36.563Z,56.42
2019-02-21T15:52:03.410Z,56.39
2019-02-21T15:54:30.160Z,56.56
2019-02-21T15:56:56.909Z,56.62
2019-02-21T15:59:23.786Z,56.69
2019-02-21T16:01:50.531Z,56.69
2019-02-21T16:04:17.333Z,56.92
2019-02-21T16:06:50.986Z,56.85
2019-02-21T16:09:16.474Z,56.29
2019-02-21T16:11:41.877Z,56.33
2019-02-21T16:14:08.688Z,56.35
2019-02-21T16:16:35.665Z,56.65
2019-02-21T16:19:02.721Z,56.89
2019-02-21T16:21:29.503Z,56.99
2019-02-21T16:23:59.533Z,56.86
2019-02-21T16:26:26.570Z,56.62
2019-02-21T16:28:54.726Z,56.76
2019-02-21T16:31:21.514Z,56.68
2019-02-21T16:33:48.207Z,56.74
2019-02-21T16:36:14.946Z,57.04
2019-02-21T16:38:41.665Z,57.08
2019-02-21T16:41:08.437Z,57.09
2019-02-21T16:43:38.193Z,57.30
2019-02-21T16:46:08.018Z,57.39
2019-02-21T16:48:33.771Z,57.65
2019-02-21T16:51:00.541Z,57.68
2019-02-21T16:53:29.618Z,57.92
2019-02-21T16:55:56.647Z,58.02
2019-02-21T16:58:23.751Z,58.17
2019-02-21T17:00:54.868Z,58.37
2019-02-21T17:03:19.564Z,58.50
2019-02-21T17:05:46.329Z,58.74
2019-02-21T17:08:13.077Z,58.89
2019-02-21T17:10:39.849Z,58.76
2019-02-21T17:13:06.624Z,58.90
2019-02-21T17:15:33.582Z,59.06
2019-02-21T17:18:03.658Z,59.12
2019-02-21T17:20:29.203Z,59.20
2019-02-21T17:22:56.478Z,59.47
2019-02-21T17:25:23.234Z,59.41
2019-02-21T17:27:50.112Z,59.59
2019-02-21T17:30:17.037Z,59.76
2019-02-21T17:32:44.047Z,59.81
2019-02-21T17:35:13.322Z,59.73
2019-02-21T17:37:40.080Z,59.98
2019-02-21T17:40:09.013Z,60.26
2019-02-21T17:42:35.953Z,60.62
2019-02-21T17:45:02.860Z,61.04
2019-02-21T17:47:29.716Z,61.20
2019-02-21T17:49:56.458Z,61.39
2019-02-21T17:52:23.343Z,61.60
2019-02-21T17:54:50.114Z,61.63
2019-02-21T17:57:16.987Z,61.91
2019-02-21T17:59:43.748Z,62.08
2019-02-21T18:02:10.551Z,62.18
2019-02-21T18:04:40.594Z,62.55
2019-02-21T18:07:07.382Z,62.57
2019-02-21T18:09:34.347Z,62.63
2019-02-21T18:12:01.078Z,62.78
2019-02-21T18:14:28.214Z,62.91
2019-02-21T18:16:55.056Z,62.99
2019-02-21T18:19:21.912Z,63.07
2019-02-21T18:21:49.352Z,63.13
2019-02-21T18:24:19.004Z,63.15
2019-02-21T18:26:45.840Z,63.18
2019-02-21T18:29:12.736Z,63.22
2019-02-21T18:31:39.819Z,63.26
2019-02-21T18:34:06.536Z,63.33
2019-02-21T18:36:33.495Z,63.42
2019-02-21T18:41:49.014Z,63.63
2019-02-21T18:44:15.950Z,63.54
2019-02-21T18:46:43.169Z,63.46
2019-02-21T18:49:09.987Z,63.54
2019-02-21T18:51:39.915Z,63.89
2019-02-21T18:54:06.612Z,64.40
2019-02-21T18:56:33.445Z,64.46
2019-02-21T18:59:00.160Z,64.64
2019-02-21T19:01:27.036Z,64.67
2019-02-21T19:03:53.852Z,64.84
2019-02-21T19:06:20.616Z,64.70
2019-02-21T19:08:47.612Z,64.77
2019-02-21T19:11:14.303Z,64.93
2019-02-21T19:13:41.110Z,65.06
2019-02-21T19:16:08.043Z,64.95
2019-02-21T19:18:34.910Z,65.00
2019-02-21T19:21:02.551Z,65.27
2019-02-21T19:23:29.333Z,65.43
2019-02-21T19:25:56.231Z,65.47
2019-02-21T19:28:22.936Z,65.66
2019-02-21T19:30:54.359Z,65.73
2019-02-21T19:33:21.217Z,66.16
2019-02-21T19:35:48.674Z,66.55
2019-02-21T19:38:15.589Z,66.84
2019-02-21T19:40:42.300Z,67.27
2019-02-21T19:43:09.070Z,67.49
2019-02-21T19:45:39.433Z,67.44
2019-02-21T19:48:06.258Z,67.56
2019-02-21T19:50:32.972Z,67.79
2019-02-21T19:52:59.669Z,67.74
2019-02-21T19:55:26.391Z,68.00
2019-02-21T19:57:53.582Z,68.13
2019-02-21T20:00:23.301Z,68.10
2019-02-21T20:02:50.064Z,68.17
2019-02-21T20:05:16.770Z,68.24
2019-02-21T20:07:45.842Z,68.54
2019-02-21T20:10:12.932Z,68.86
2019-02-21T20:12:39.660Z,68.65
2019-02-21T20:15:06.511Z,68.70
2019-02-21T20:17:33.339Z,68.49
2019-02-21T20:20:02.045Z,68.24
2019-02-21T20:22:28.751Z,68.25
2019-02-21T20:24:55.496Z,68.39
2019-02-21T20:27:22.365Z,68.46
2019-02-21T20:29:49.059Z,68.78
2019-02-21T20:32:16.165Z,69.13
2019-02-21T20:34:43.113Z,69.38
2019-02-21T20:37:12.072Z,69.38
2019-02-21T20:39:38.921Z,69.43
2019-02-21T20:42:05.665Z,69.53
2019-02-21T20:44:32.389Z,69.63
2019-02-21T20:46:59.193Z,69.58
2019-02-21T20:49:25.932Z,69.51
2019-02-21T20:51:52.656Z,69.48
2019-02-21T20:54:19.345Z,69.59
2019-02-21T20:56:46.052Z,69.71
2019-02-21T20:59:12.761Z,69.81
2019-02-21T21:01:39.488Z,69.75
2019-02-21T21:04:06.189Z,69.57
2019-02-21T21:06:32.909Z,69.46
2019-02-21T21:09:00.004Z,69.60
2019-02-21T21:11:26.748Z,69.40
2019-02-21T21:13:53.765Z,69.55
2019-02-21T21:16:20.546Z,69.64
2019-02-21T21:18:47.260Z,69.42
2019-02-21T21:21:13.974Z,68.94
2019-02-21T21:23:40.699Z,68.75
2019-02-21T21:26:07.405Z,68.76
2019-02-21T21:28:37.393Z,68.92
2019-02-21T21:31:04.136Z,68.79
2019-02-21T21:33:31.009Z,68.78
2019-02-21T21:35:57.740Z,69.07
2019-02-21T21:38:24.623Z,69.19
2019-02-21T21:40:51.915Z,69.30
2019-02-21T21:43:18.752Z,69.31
2019-02-21T21:45:45.476Z,69.39
2019-02-21T21:48:12.275Z,69.84
2019-02-21T21:50:38.963Z,70.14
2019-02-21T21:53:05.741Z,70.58
2019-02-21T21:55:32.429Z,70.51
2019-02-21T21:58:01.391Z,70.60
2019-02-21T22:00:28.096Z,70.59
2019-02-21T22:02:54.833Z,70.80
2019-02-21T22:05:21.581Z,70.65
2019-02-21T22:07:50.595Z,71.11
2019-02-21T22:10:17.716Z,71.22
2019-02-21T22:12:44.410Z,71.13
2019-02-21T22:15:11.241Z,71.11
2019-02-21T22:17:38.021Z,71.11
2019-02-21T22:20:05.239Z,71.04
2019-02-21T22:22:31.943Z,71.18
2019-02-21T22:24:58.774Z,71.42
2019-02-21T22:27:25.497Z,71.31
2019-02-21T22:29:52.186Z,71.39
2019-02-21T22:32:18.873Z,71.29
2019-02-21T22:34:45.599Z,71.27
2019-02-21T22:37:12.383Z,71.29
2019-02-21T22:39:39.098Z,71.16
2019-02-21T22:42:05.829Z,71.16
2019-02-21T22:44:32.945Z,71.16
2019-02-21T22:46:59.670Z,71.45
2019-02-21T22:49:27.045Z,71.62
2019-02-21T22:51:53.766Z,71.74
2019-02-21T22:54:20.532Z,71.77
2019-02-21T22:56:47.560Z,71.64
2019-02-21T22:59:14.620Z,71.71
2019-02-21T23:01:46.208Z,71.73
2019-02-21T23:04:55.327Z,71.90
2019-02-21T23:07:50.049Z,71.89
2019-02-21T23:10:16.774Z,71.86
2019-02-21T23:12:43.548Z,71.95
2019-02-21T23:15:10.269Z,71.65
2019-02-21T23:17:39.129Z,71.61
2019-02-21T23:20:06.982Z,71.70
2019-02-21T23:22:33.719Z,71.78
2019-02-21T23:25:00.448Z,71.90
2019-02-21T23:27:27.173Z,71.70
2019-02-21T23:29:55.782Z,71.78
2019-02-21T23:32:22.549Z,71.68
2019-02-21T23:34:50.279Z,71.79
2019-02-21T23:37:17.260Z,71.71
2019-02-21T23:39:44.380Z,71.82
2019-02-21T23:42:11.143Z,71.90
2019-02-21T23:44:37.827Z,72.02
2019-02-21T23:47:04.550Z,72.12
2019-02-21T23:49:31.662Z,72.16
2019-02-21T23:51:58.398Z,72.42
2019-02-21T23:54:25.514Z,72.27
2019-02-21T23:56:52.558Z,72.39
2019-02-21T23:59:19.260Z,72.70
